createdAt,value
2023-01-20T15:45:18.067Z,1.70
2023-01-20T15:47:50.877Z,1.70
2023-01-20T15:50:24.313Z,1.70
2023-01-20T15:52:57.032Z,1.70
2023-01-20T15:55:29.748Z,1.70
2023-01-20T15:58:02.877Z,1.70
2023-01-20T16:00:35.584Z,1.70
2023-01-20T16:03:08.995Z,1.70
2023-01-20T16:05:41.708Z,1.70
2023-01-20T16:08:19.586Z,1.60
2023-01-20T16:10:52.339Z,1.60
2023-01-20T16:13:25.163Z,1.60
2023-01-20T16:15:58.005Z,1.50
2023-01-20T16:18:30.905Z,1.50
2023-01-20T16:21:04.648Z,1.50
2023-01-20T16:23:37.710Z,1.40
2023-01-20T16:26:24.669Z,1.40
2023-01-20T16:28:57.942Z,1.40
2023-01-20T16:31:32.361Z,1.40
2023-01-20T16:34:05.317Z,1.30
2023-01-20T16:36:38.048Z,1.30
2023-01-20T16:39:11.092Z,1.30
2023-01-20T16:41:48.694Z,1.30
2023-01-20T16:44:21.568Z,1.30
2023-01-20T16:46:54.392Z,1.30
2023-01-20T16:49:27.270Z,1.40
2023-01-20T16:52:00.154Z,1.40
2023-01-20T16:54:32.905Z,1.40
2023-01-20T16:57:05.639Z,1.50
2023-01-20T16:59:38.279Z,1.50
2023-01-20T17:02:11.943Z,1.50
2023-01-20T17:04:44.692Z,1.50
2023-01-20T17:07:17.355Z,1.50
2023-01-20T17:09:50.102Z,1.50
2023-01-20T17:12:23.157Z,1.50
2023-01-20T17:14:55.960Z,1.50
2023-01-20T17:17:28.756Z,1.50
2023-01-20T17:20:01.425Z,1.50
2023-01-20T17:22:34.211Z,1.50
2023-01-20T17:25:08.608Z,1.50
2023-01-20T17:27:41.353Z,1.50
2023-01-20T17:30:15.682Z,1.50
2023-01-20T17:32:48.891Z,1.50
2023-01-20T17:35:21.590Z,1.50
2023-01-20T17:37:54.329Z,1.50
2023-01-20T17:40:27.175Z,1.50
2023-01-20T17:43:09.203Z,1.60
2023-01-20T17:45:46.720Z,1.60
2023-01-20T17:48:19.549Z,1.60
2023-01-20T17:50:58.782Z,1.60
2023-01-20T17:53:33.256Z,1.60
2023-01-20T17:56:12.188Z,1.60
2023-01-20T17:58:46.967Z,1.60
2023-01-20T18:01:21.940Z,1.60
2023-01-20T18:03:56.591Z,1.60
2023-01-20T18:06:30.409Z,1.60
2023-01-20T18:09:05.468Z,1.60
2023-01-20T18:11:38.290Z,1.60
2023-01-20T18:14:11.096Z,1.60
2023-01-20T18:16:43.817Z,1.60
2023-01-20T18:19:16.754Z,1.60
2023-01-20T18:21:49.408Z,1.60
2023-01-20T18:24:22.209Z,1.60
2023-01-20T18:26:56.260Z,1.60
2023-01-20T18:29:30.638Z,1.60
2023-01-20T18:32:05.004Z,1.60
2023-01-20T18:34:37.724Z,1.60
2023-01-20T18:37:10.507Z,1.60
2023-01-20T18:39:43.934Z,1.60
2023-01-20T18:42:16.680Z,1.60
2023-01-20T18:44:49.505Z,1.70
2023-01-20T18:47:22.179Z,1.60
2023-01-20T18:49:54.849Z,1.70
2023-01-20T18:52:27.637Z,1.70
2023-01-20T18:55:00.402Z,1.70
2023-01-20T18:57:33.427Z,1.70
2023-01-20T19:00:06.908Z,1.70
2023-01-20T19:02:39.809Z,1.70
2023-01-20T19:05:12.539Z,1.70
2023-01-20T19:07:49.663Z,1.70
2023-01-20T19:10:22.308Z,1.70
2023-01-20T19:12:55.250Z,1.70
2023-01-20T19:15:28.068Z,1.70
2023-01-20T19:18:00.982Z,1.70
2023-01-20T19:20:33.689Z,1.70
2023-01-20T19:23:06.571Z,1.70
2023-01-20T19:25:39.507Z,1.70
2023-01-20T19:28:14.207Z,1.70
2023-01-20T19:30:47.028Z,1.70
2023-01-20T19:33:19.920Z,1.70
2023-01-20T19:35:52.672Z,1.80
2023-01-20T19:38:26.085Z,1.70
2023-01-20T19:41:17.801Z,1.70
2023-01-20T19:43:56.838Z,1.80
2023-01-20T19:46:33.033Z,1.80
2023-01-20T19:49:06.162Z,1.80
2023-01-20T19:51:39.172Z,1.80
2023-01-20T19:54:13.750Z,1.80
2023-01-20T19:56:46.401Z,1.80
2023-01-20T19:59:19.215Z,1.80
2023-01-20T20:01:52.167Z,1.80
2023-01-20T20:04:25.315Z,1.80
2023-01-20T20:06:57.993Z,1.80
2023-01-20T20:09:30.710Z,1.80
2023-01-20T20:12:06.112Z,1.80
2023-01-20T20:14:38.846Z,1.80
2023-01-20T20:17:11.475Z,1.80
2023-01-20T20:19:44.179Z,1.80
2023-01-20T20:22:16.853Z,1.90
2023-01-20T20:24:49.656Z,1.90
2023-01-20T20:27:22.746Z,1.90
2023-01-20T20:29:59.729Z,1.90
2023-01-20T20:32:32.527Z,1.90
2023-01-20T20:35:06.103Z,1.80
2023-01-20T20:37:38.800Z,1.80
2023-01-20T20:40:12.040Z,1.80
2023-01-20T20:42:44.720Z,1.90
2023-01-20T20:45:18.540Z,1.80
2023-01-20T20:47:51.332Z,1.90
2023-01-20T20:50:25.140Z,1.90
2023-01-20T20:52:58.748Z,1.80
2023-01-20T20:55:31.460Z,1.80
2023-01-20T20:58:04.190Z,1.80
2023-01-20T21:00:37.725Z,1.80
2023-01-20T21:03:11.009Z,1.80
2023-01-20T21:05:49.361Z,1.80
2023-01-20T21:08:22.039Z,1.80
2023-01-20T21:11:02.183Z,1.90
2023-01-20T21:13:34.872Z,1.90
2023-01-20T21:16:11.604Z,1.90
2023-01-20T21:18:44.283Z,1.90
2023-01-20T21:21:17.312Z,1.90
2023-01-20T21:23:52.081Z,1.90
2023-01-20T21:26:28.961Z,1.90
2023-01-20T21:29:03.667Z,1.90
2023-01-20T21:31:36.560Z,1.90
2023-01-20T21:34:14.357Z,1.90
2023-01-20T21:36:47.017Z,1.90
2023-01-20T21:39:20.476Z,1.90
2023-01-20T21:41:53.576Z,1.80
2023-01-20T21:44:28.971Z,1.80
2023-01-20T21:47:07.867Z,1.80
2023-01-20T21:49:59.220Z,1.70
2023-01-20T21:52:46.964Z,1.60
2023-01-20T21:55:19.919Z,1.60
2023-01-20T21:57:52.654Z,1.60
2023-01-20T22:00:25.539Z,1.60
2023-01-20T22:02:58.355Z,1.50
2023-01-20T22:05:31.067Z,1.50
2023-01-20T22:08:03.795Z,1.50
2023-01-20T22:10:36.622Z,1.50
2023-01-20T22:13:09.360Z,1.50
2023-01-20T22:15:45.155Z,1.50
2023-01-20T22:18:17.859Z,1.50
2023-01-20T22:20:50.606Z,1.50
2023-01-20T22:23:23.249Z,1.50
2023-01-20T22:25:55.969Z,1.40
2023-01-20T22:28:39.588Z,1.40
2023-01-20T22:31:19.897Z,1.50
2023-01-20T22:33:54.547Z,1.50
2023-01-20T22:36:27.273Z,1.40
2023-01-20T22:39:00.195Z,1.50
2023-01-20T22:41:33.427Z,1.50
2023-01-20T22:44:06.622Z,1.50
2023-01-20T22:46:39.301Z,1.50
2023-01-20T22:49:12.512Z,1.50
2023-01-20T22:51:45.219Z,1.50
2023-01-20T22:54:18.057Z,1.50
2023-01-20T22:56:50.769Z,1.60
2023-01-20T22:59:23.467Z,1.60
2023-01-20T23:01:56.227Z,1.60
2023-01-20T23:04:28.970Z,1.60
2023-01-20T23:07:01.726Z,1.50
2023-01-20T23:09:34.546Z,1.60
2023-01-20T23:12:07.231Z,1.60
2023-01-20T23:14:58.676Z,1.60
2023-01-20T23:17:31.471Z,1.60
2023-01-20T23:20:04.908Z,1.60
2023-01-20T23:22:37.575Z,1.50
2023-01-20T23:25:10.383Z,1.50
2023-01-20T23:27:43.137Z,1.40
2023-01-20T23:30:16.372Z,1.40
2023-01-20T23:32:49.310Z,1.40
2023-01-20T23:35:21.999Z,1.40
2023-01-20T23:37:54.750Z,1.30
2023-01-20T23:40:28.257Z,1.40
2023-01-20T23:43:01.350Z,1.30
2023-01-20T23:45:34.498Z,1.30
2023-01-20T23:48:07.358Z,1.30
2023-01-20T23:50:40.165Z,1.30
2023-01-20T23:53:12.924Z,1.20
2023-01-20T23:55:45.820Z,1.20
2023-01-20T23:58:18.777Z,1.20
